createdAt,value
2017-05-05T00:00:12.032Z,80.40
2017-05-05T00:02:39.891Z,79.30
2017-05-05T00:05:07.293Z,80.10
2017-05-05T00:07:34.715Z,79.70
2017-05-05T00:10:02.846Z,79.90
2017-05-05T00:12:30.457Z,78.90
2017-05-05T00:15:01.009Z,79.20
2017-05-05T00:17:28.411Z,79.20
2017-05-05T00:19:55.960Z,79.50
2017-05-05T00:22:23.323Z,79.60
2017-05-05T00:24:50.925Z,79.40
2017-05-05T00:27:18.519Z,79.80
2017-05-05T00:29:45.879Z,79.80
2017-05-05T00:32:13.255Z,79.70
2017-05-05T00:34:40.705Z,79.40
2017-05-05T00:37:08.272Z,79.00
2017-05-05T00:39:36.198Z,78.90
2017-05-05T00:42:03.624Z,79.00
2017-05-05T00:44:31.792Z,78.70
2017-05-05T00:46:59.906Z,78.20
2017-05-05T00:49:27.358Z,78.30
2017-05-05T00:51:54.824Z,78.00
2017-05-05T00:54:22.210Z,78.20
2017-05-05T00:56:49.753Z,78.30
2017-05-05T00:59:20.438Z,78.10
2017-05-05T01:01:47.839Z,78.40
2017-05-05T01:04:15.261Z,78.50
2017-05-05T01:06:46.436Z,78.50
2017-05-05T01:09:13.958Z,78.40
2017-05-05T01:11:41.466Z,78.10
2017-05-05T01:14:09.062Z,78.00
2017-05-05T01:16:37.247Z,77.50
2017-05-05T01:19:04.737Z,77.40
2017-05-05T01:21:32.134Z,76.60
2017-05-05T01:23:59.486Z,76.60
2017-05-05T01:26:26.915Z,76.90
2017-05-05T01:28:54.465Z,76.10
2017-05-05T01:31:21.837Z,76.20
2017-05-05T01:33:49.246Z,76.30
2017-05-05T01:36:16.606Z,76.80
2017-05-05T01:38:43.994Z,76.60
2017-05-05T01:41:11.387Z,76.50
2017-05-05T01:43:40.093Z,76.20
2017-05-05T01:46:07.557Z,77.50
2017-05-05T01:48:34.974Z,76.20
2017-05-05T01:51:02.337Z,77.20
2017-05-05T01:53:29.763Z,78.10
2017-05-05T01:55:57.154Z,77.80
2017-05-05T01:58:24.574Z,77.80
2017-05-05T02:00:53.993Z,77.30
2017-05-05T02:03:21.390Z,78.40
2017-05-05T02:05:48.768Z,78.50
2017-05-05T02:08:16.141Z,76.10
2017-05-05T02:10:44.112Z,78.10
2017-05-05T02:13:11.527Z,76.20
2017-05-05T02:15:38.887Z,77.40
2017-05-05T02:18:06.266Z,76.10
2017-05-05T02:20:40.000Z,76.10
2017-05-05T02:23:07.358Z,77.60
2017-05-05T02:25:34.704Z,76.70
2017-05-05T02:28:02.074Z,77.00
2017-05-05T02:30:30.165Z,77.90
2017-05-05T02:32:57.558Z,77.00
2017-05-05T02:35:24.921Z,76.30
2017-05-05T02:37:53.080Z,76.80
2017-05-05T02:40:20.446Z,76.80
2017-05-05T02:42:48.033Z,76.50
2017-05-05T02:45:15.425Z,76.40
2017-05-05T02:47:43.636Z,77.40
2017-05-05T02:50:11.013Z,76.00
2017-05-05T02:52:39.174Z,75.40
2017-05-05T02:55:07.305Z,75.70
2017-05-05T02:57:34.683Z,75.40
2017-05-05T03:00:02.343Z,75.60
2017-05-05T03:02:29.962Z,74.80
2017-05-05T03:04:57.367Z,74.70
2017-05-05T03:07:24.816Z,74.10
2017-05-05T03:09:52.212Z,75.00
2017-05-05T03:12:20.339Z,75.00
2017-05-05T03:14:49.771Z,74.20
2017-05-05T03:17:17.150Z,74.50
2017-05-05T03:19:44.547Z,75.30
2017-05-05T03:22:11.971Z,74.70
2017-05-05T03:24:39.373Z,74.60
2017-05-05T03:27:06.773Z,75.40
2017-05-05T03:29:34.237Z,75.50
2017-05-05T03:32:01.642Z,75.70
2017-05-05T03:34:29.054Z,76.50
2017-05-05T03:36:56.470Z,76.10
2017-05-05T03:39:24.206Z,76.10
2017-05-05T03:41:51.603Z,76.00
2017-05-05T03:44:19.371Z,76.10
2017-05-05T03:46:46.733Z,75.50
2017-05-05T03:49:14.388Z,75.20
2017-05-05T03:51:42.523Z,75.60
2017-05-05T03:54:10.097Z,75.60
2017-05-05T03:56:37.495Z,76.10
2017-05-05T03:59:05.331Z,76.40
2017-05-05T04:01:33.506Z,76.10
2017-05-05T04:04:00.935Z,77.30
2017-05-05T04:06:28.387Z,76.20
2017-05-05T04:08:55.787Z,75.90
2017-05-05T04:11:23.908Z,77.50
2017-05-05T04:13:51.369Z,76.80
2017-05-05T04:16:18.785Z,76.20
2017-05-05T04:18:46.196Z,75.30
2017-05-05T04:21:15.390Z,74.90
2017-05-05T04:23:42.731Z,74.90
2017-05-05T04:26:11.956Z,74.50
2017-05-05T04:32:16.433Z,73.90
2017-05-05T04:34:44.528Z,73.90
2017-05-05T04:37:11.964Z,73.40
2017-05-05T04:39:39.330Z,75.30
2017-05-05T04:42:06.669Z,74.10
2017-05-05T04:44:34.168Z,73.80
2017-05-05T04:47:01.570Z,73.90
2017-05-05T04:49:29.516Z,73.40
2017-05-05T04:51:56.843Z,73.20
2017-05-05T04:54:24.300Z,72.90
2017-05-05T04:56:51.633Z,72.50
2017-05-05T04:59:18.975Z,72.00
2017-05-05T05:01:46.516Z,72.00
2017-05-05T05:04:13.861Z,71.80
2017-05-05T05:06:41.240Z,72.70
2017-05-05T05:09:09.525Z,72.40
2017-05-05T05:11:37.673Z,72.10
2017-05-05T05:14:05.822Z,72.70
2017-05-05T05:16:33.962Z,72.60
2017-05-05T05:19:01.605Z,72.40
2017-05-05T05:21:30.214Z,72.10
2017-05-05T05:23:58.967Z,72.30
2017-05-05T05:26:27.997Z,72.50
2017-05-05T05:29:27.968Z,72.40
2017-05-05T05:31:56.940Z,71.50
2017-05-05T05:34:25.608Z,70.90
2017-05-05T05:36:59.157Z,70.90
2017-05-05T05:42:01.106Z,70.50
2017-05-05T05:44:30.102Z,70.00
2017-05-05T05:46:58.313Z,70.00
2017-05-05T05:49:26.753Z,70.60
2017-05-05T05:51:55.523Z,70.70
2017-05-05T05:54:23.796Z,70.80
2017-05-05T05:56:51.311Z,70.00
2017-05-05T05:59:18.661Z,70.80
2017-05-05T06:01:46.778Z,71.00
2017-05-05T06:04:14.106Z,70.80
2017-05-05T06:06:41.566Z,70.50
2017-05-05T06:09:11.770Z,70.60
2017-05-05T06:11:39.111Z,70.60
2017-05-05T06:14:07.185Z,70.30
2017-05-05T06:16:35.900Z,69.70
2017-05-05T06:19:03.957Z,69.00
2017-05-05T06:21:32.248Z,69.70
2017-05-05T06:23:59.581Z,69.50
2017-05-05T06:26:27.635Z,69.80
2017-05-05T06:28:56.717Z,68.80
2017-05-05T06:31:24.068Z,68.60
2017-05-05T06:33:51.417Z,68.60
2017-05-05T06:39:54.538Z,68.00
2017-05-05T06:42:22.615Z,67.40
2017-05-05T06:44:50.726Z,67.00
2017-05-05T06:47:18.136Z,66.90
2017-05-05T06:49:45.484Z,66.60
2017-05-05T06:52:12.898Z,66.50
2017-05-05T06:54:40.244Z,66.30
2017-05-05T06:57:07.594Z,67.00
2017-05-05T06:59:34.938Z,66.30
2017-05-05T07:02:02.269Z,66.20
2017-05-05T07:04:29.621Z,66.20
2017-05-05T07:06:57.712Z,66.30
2017-05-05T07:09:25.087Z,66.10
2017-05-05T07:11:53.055Z,66.50
2017-05-05T07:14:20.428Z,66.70
2017-05-05T07:16:47.950Z,65.40
2017-05-05T07:19:15.324Z,65.20
2017-05-05T07:21:42.672Z,64.90
2017-05-05T07:24:10.749Z,64.10
2017-05-05T07:26:38.341Z,64.30
2017-05-05T07:29:05.658Z,64.20
2017-05-05T07:31:33.065Z,63.70
2017-05-05T07:34:00.428Z,63.10
2017-05-05T07:36:27.754Z,62.60
2017-05-05T07:38:55.413Z,62.30
2017-05-05T07:41:22.855Z,62.50
2017-05-05T07:43:50.737Z,62.30
2017-05-05T07:46:18.099Z,61.90
2017-05-05T07:48:45.478Z,62.30
2017-05-05T07:51:12.952Z,61.60
2017-05-05T07:53:40.389Z,60.40
2017-05-05T07:56:08.536Z,60.00
2017-05-05T07:58:35.904Z,60.50
2017-05-05T08:01:06.114Z,60.50
2017-05-05T08:03:33.473Z,60.10
2017-05-05T08:06:00.824Z,60.30
2017-05-05T08:08:28.201Z,60.40
2017-05-05T08:10:55.844Z,60.30
2017-05-05T08:13:23.621Z,59.50
2017-05-05T08:15:50.951Z,60.10
2017-05-05T08:18:18.267Z,59.60
2017-05-05T08:20:50.728Z,59.30
2017-05-05T08:23:18.138Z,59.00
2017-05-05T08:25:45.490Z,59.00
2017-05-05T08:28:12.850Z,59.00
2017-05-05T08:30:40.208Z,60.00
2017-05-05T08:33:08.006Z,59.50
2017-05-05T08:35:34.968Z,60.30
2017-05-05T08:38:02.343Z,60.60
2017-05-05T08:40:29.676Z,60.90
2017-05-05T08:42:57.068Z,61.20
2017-05-05T08:45:24.400Z,61.00
2017-05-05T08:47:51.798Z,61.40
2017-05-05T08:50:19.235Z,61.40
2017-05-05T08:52:46.613Z,61.10
2017-05-05T08:55:14.006Z,60.90
2017-05-05T08:57:41.357Z,60.00
2017-05-05T09:00:08.690Z,59.70
2017-05-05T09:02:36.817Z,59.40
2017-05-05T09:05:04.133Z,59.70
2017-05-05T09:07:31.597Z,61.30
2017-05-05T09:09:59.013Z,60.60
2017-05-05T09:12:26.442Z,60.50
2017-05-05T09:14:53.816Z,60.30
2017-05-05T09:17:22.796Z,59.80
2017-05-05T09:19:50.154Z,60.20
2017-05-05T09:22:17.707Z,60.20
2017-05-05T09:24:45.036Z,60.00
2017-05-05T09:27:12.400Z,59.70
2017-05-05T09:29:39.772Z,59.10
2017-05-05T09:32:07.149Z,58.70
2017-05-05T09:34:34.626Z,58.10
2017-05-05T09:37:02.778Z,58.10
2017-05-05T09:39:30.281Z,58.10
2017-05-05T09:41:57.734Z,58.00
2017-05-05T09:44:25.789Z,57.40
2017-05-05T09:46:53.155Z,57.90
2017-05-05T09:49:20.485Z,56.50
2017-05-05T09:51:48.579Z,57.40
2017-05-05T09:54:17.452Z,57.00
2017-05-05T09:56:44.829Z,57.20
2017-05-05T09:59:12.222Z,57.60
2017-05-05T10:01:39.689Z,58.40
2017-05-05T10:04:07.136Z,57.40
2017-05-05T10:06:34.501Z,57.00
2017-05-05T10:09:01.973Z,56.20
2017-05-05T10:11:30.100Z,56.90
2017-05-05T10:13:57.460Z,56.00
2017-05-05T10:16:24.917Z,56.20
2017-05-05T10:18:52.398Z,56.40
2017-05-05T10:21:19.731Z,55.20
2017-05-05T10:23:48.046Z,55.60
2017-05-05T10:26:16.140Z,55.20
2017-05-05T10:28:44.259Z,56.40
2017-05-05T10:31:11.581Z,56.20
2017-05-05T10:33:38.990Z,56.20
2017-05-05T10:36:06.381Z,55.00
2017-05-05T10:38:33.781Z,52.80
2017-05-05T10:41:02.081Z,50.90
2017-05-05T10:43:29.474Z,48.40
2017-05-05T10:45:57.555Z,47.30
2017-05-05T10:48:24.902Z,45.90
2017-05-05T10:50:52.324Z,45.60
2017-05-05T10:53:19.823Z,46.80
2017-05-05T10:55:47.719Z,46.90
2017-05-05T10:58:15.554Z,49.00
2017-05-05T11:00:42.913Z,49.30
2017-05-05T11:03:10.613Z,50.10
2017-05-05T11:05:38.095Z,49.50
2017-05-05T11:08:05.490Z,44.70
2017-05-05T11:10:39.050Z,35.50
2017-05-05T11:13:07.167Z,29.40
2017-05-05T11:15:34.544Z,24.50
2017-05-05T11:18:02.451Z,23.90
2017-05-05T11:20:30.729Z,25.20
2017-05-05T11:22:58.804Z,24.70
2017-05-05T11:25:26.928Z,26.30
2017-05-05T11:27:54.300Z,30.70
2017-05-05T11:30:22.414Z,32.50
2017-05-05T11:32:50.108Z,26.50
2017-05-05T11:35:17.456Z,24.10
2017-05-05T11:37:44.785Z,24.60
2017-05-05T11:40:12.202Z,23.10
2017-05-05T11:42:39.555Z,22.30
2017-05-05T11:45:07.002Z,20.30
2017-05-05T11:47:34.399Z,18.20
2017-05-05T11:50:01.918Z,20.00
2017-05-05T11:52:31.359Z,19.00
2017-05-05T11:55:00.060Z,19.90
2017-05-05T11:57:27.644Z,17.50
2017-05-05T11:59:54.996Z,19.70
2017-05-05T12:02:22.366Z,21.10
2017-05-05T12:04:50.360Z,21.40
2017-05-05T12:07:18.533Z,20.50
2017-05-05T12:09:46.612Z,20.50
2017-05-05T12:12:14.689Z,19.30
2017-05-05T12:14:42.759Z,17.70
2017-05-05T12:17:10.870Z,19.10
2017-05-05T12:19:38.201Z,18.40
2017-05-05T12:22:06.521Z,18.00
2017-05-05T12:24:33.915Z,17.30
2017-05-05T12:27:01.320Z,18.20
2017-05-05T12:29:28.688Z,20.20
2017-05-05T12:31:56.863Z,19.80
2017-05-05T12:34:24.183Z,19.50
2017-05-05T12:36:51.668Z,20.60
2017-05-05T12:39:19.043Z,21.30
2017-05-05T12:41:47.233Z,21.30
2017-05-05T12:44:14.634Z,20.60
2017-05-05T12:46:42.137Z,20.70
2017-05-05T12:49:09.581Z,22.40
2017-05-05T12:51:37.800Z,23.00
2017-05-05T12:54:05.383Z,25.40
2017-05-05T12:56:32.737Z,26.90
2017-05-05T12:59:00.406Z,29.30
2017-05-05T13:01:27.848Z,30.50
2017-05-05T13:03:55.163Z,31.00
2017-05-05T13:06:23.970Z,32.10
2017-05-05T13:08:51.534Z,32.40
2017-05-05T13:11:18.857Z,32.10
2017-05-05T13:13:47.047Z,31.90
2017-05-05T13:16:15.127Z,32.40
2017-05-05T13:18:42.477Z,33.60
2017-05-05T13:21:10.526Z,34.50
2017-05-05T13:23:38.613Z,33.80
2017-05-05T13:26:06.016Z,33.30
2017-05-05T13:28:33.342Z,34.00
2017-05-05T13:31:00.724Z,34.20
2017-05-05T13:33:28.078Z,35.10
2017-05-05T13:35:55.550Z,35.20
2017-05-05T13:38:22.978Z,37.60
2017-05-05T13:40:52.171Z,39.50
2017-05-05T13:43:19.858Z,40.50
2017-05-05T13:45:47.914Z,42.20
2017-05-05T13:48:15.873Z,41.70
2017-05-05T13:50:48.066Z,43.60
2017-05-05T13:53:16.325Z,42.30
2017-05-05T13:55:44.401Z,43.00
2017-05-05T13:58:12.952Z,42.70
2017-05-05T14:00:42.003Z,43.50
2017-05-05T14:03:11.388Z,44.70
2017-05-05T14:05:40.514Z,46.90
2017-05-05T14:08:10.057Z,47.30
2017-05-05T14:10:38.309Z,48.00
2017-05-05T14:13:06.069Z,49.00
2017-05-05T14:15:33.621Z,49.80
2017-05-05T14:18:01.980Z,50.90
2017-05-05T14:20:30.171Z,51.50
2017-05-05T14:22:58.385Z,50.60
2017-05-05T14:25:26.966Z,50.80
2017-05-05T14:27:55.254Z,51.30
2017-05-05T14:30:22.908Z,52.60
2017-05-05T14:32:51.415Z,51.90
2017-05-05T14:35:23.263Z,50.80
2017-05-05T14:37:51.461Z,51.10
2017-05-05T14:40:20.782Z,51.80
2017-05-05T14:42:48.231Z,51.90
2017-05-05T14:45:16.086Z,52.10
2017-05-05T14:47:43.785Z,52.80
2017-05-05T14:50:12.366Z,51.80
2017-05-05T14:56:08.303Z,51.90
2017-05-05T14:58:37.187Z,51.80
2017-05-05T15:01:07.051Z,51.20
2017-05-05T15:03:36.511Z,51.20
2017-05-05T15:06:07.318Z,51.50
2017-05-05T15:08:36.011Z,52.20
2017-05-05T15:11:06.154Z,51.80
2017-05-05T15:13:33.880Z,51.00
2017-05-05T15:16:02.705Z,51.20
2017-05-05T15:18:30.521Z,51.50
2017-05-05T15:21:00.662Z,51.80
2017-05-05T15:23:29.826Z,52.40
2017-05-05T15:25:57.283Z,51.80
2017-05-05T15:28:25.305Z,52.60
2017-05-05T15:30:53.819Z,51.90
2017-05-05T15:33:23.085Z,51.30
2017-05-05T15:35:52.409Z,51.90
2017-05-05T15:38:22.789Z,52.20
2017-05-05T15:40:52.394Z,52.50
2017-05-05T15:43:21.120Z,52.80
2017-05-05T15:45:50.516Z,53.50
2017-05-05T15:48:18.101Z,53.20
2017-05-05T15:50:45.494Z,53.20
2017-05-05T15:53:14.051Z,53.20
2017-05-05T15:55:45.794Z,53.00
2017-05-05T15:58:14.900Z,53.00
2017-05-05T16:00:43.678Z,53.10
2017-05-05T16:03:12.982Z,52.00
2017-05-05T16:05:42.957Z,53.10
2017-05-05T16:08:39.055Z,53.10
2017-05-05T16:11:08.877Z,53.40
2017-05-05T16:13:39.913Z,53.60
2017-05-05T16:16:08.230Z,53.70
2017-05-05T16:18:36.885Z,54.10
2017-05-05T16:21:07.023Z,53.90
2017-05-05T16:23:37.512Z,53.90
2017-05-05T16:26:07.518Z,54.80
2017-05-05T16:28:36.372Z,54.30
2017-05-05T16:31:12.305Z,54.40
2017-05-05T16:33:40.609Z,54.10
2017-05-05T16:36:09.889Z,54.40
2017-05-05T16:38:42.813Z,54.90
2017-05-05T16:41:11.548Z,54.50
2017-05-05T16:43:41.213Z,54.60
2017-05-05T16:46:09.285Z,54.70
2017-05-05T16:48:37.513Z,55.10
2017-05-05T16:51:04.969Z,55.30
2017-05-05T16:53:32.343Z,55.00
2017-05-05T16:55:59.812Z,55.20
2017-05-05T16:58:28.167Z,55.10
2017-05-05T17:00:55.619Z,55.70
2017-05-05T17:03:23.354Z,55.10
2017-05-05T17:05:51.489Z,55.40
2017-05-05T17:08:18.852Z,55.50
2017-05-05T17:10:46.957Z,55.70
2017-05-05T17:13:14.344Z,55.50
2017-05-05T17:15:42.057Z,55.70
2017-05-05T17:18:10.423Z,55.90
2017-05-05T17:20:37.835Z,56.40
2017-05-05T17:23:05.317Z,55.90
2017-05-05T17:25:32.819Z,56.20
2017-05-05T17:28:00.361Z,56.20
2017-05-05T17:30:28.536Z,56.20
2017-05-05T17:32:56.901Z,56.10
2017-05-05T17:35:24.388Z,56.10
2017-05-05T17:37:51.761Z,56.50
2017-05-05T17:40:19.096Z,56.30
2017-05-05T17:42:46.710Z,56.70
2017-05-05T17:45:14.121Z,56.70
2017-05-05T17:47:41.596Z,56.70
2017-05-05T17:50:09.018Z,56.90
2017-05-05T17:52:37.125Z,57.10
2017-05-05T17:55:04.943Z,57.00
2017-05-05T17:57:33.177Z,57.30
2017-05-05T18:00:00.521Z,57.30
2017-05-05T18:02:28.116Z,57.20
2017-05-05T18:04:55.659Z,57.30
2017-05-05T18:07:23.170Z,57.50
2017-05-05T18:09:58.380Z,57.80
2017-05-05T18:12:25.880Z,57.90
2017-05-05T18:14:53.241Z,58.00
2017-05-05T18:17:20.674Z,57.90
2017-05-05T18:19:48.745Z,58.30
2017-05-05T18:22:16.883Z,58.30
2017-05-05T18:24:44.487Z,58.60
2017-05-05T18:27:12.207Z,59.10
2017-05-05T18:29:40.782Z,58.70
2017-05-05T18:32:08.465Z,59.10
2017-05-05T18:34:36.052Z,59.20
2017-05-05T18:37:03.669Z,59.40
2017-05-05T18:39:31.556Z,59.60
2017-05-05T18:41:59.410Z,59.60
2017-05-05T18:44:27.580Z,59.70
2017-05-05T18:46:55.236Z,60.00
2017-05-05T18:49:23.399Z,60.40
2017-05-05T18:51:51.338Z,60.60
2017-05-05T18:54:23.949Z,60.90
2017-05-05T18:56:51.396Z,60.70
2017-05-05T18:59:18.907Z,61.10
2017-05-05T19:01:46.357Z,61.20
2017-05-05T19:04:23.140Z,61.30
2017-05-05T19:06:50.795Z,61.40
2017-05-05T19:09:18.301Z,62.50
2017-05-05T19:11:46.010Z,62.00
2017-05-05T19:14:13.608Z,62.30
2017-05-05T19:16:41.094Z,62.60
2017-05-05T19:19:08.713Z,62.80
2017-05-05T19:21:36.987Z,63.00
2017-05-05T19:24:04.539Z,62.70
2017-05-05T19:26:32.185Z,62.50
2017-05-05T19:29:00.399Z,62.50
2017-05-05T19:31:29.921Z,62.60
2017-05-05T19:33:58.277Z,63.00
2017-05-05T19:36:25.955Z,63.20
2017-05-05T19:38:59.685Z,63.40
2017-05-05T19:41:27.537Z,62.60
2017-05-05T19:43:55.817Z,62.50
2017-05-05T19:46:23.242Z,61.90
2017-05-05T19:48:50.684Z,62.30
2017-05-05T19:51:18.279Z,62.30
2017-05-05T19:53:45.733Z,63.10
2017-05-05T19:56:13.179Z,62.80
2017-05-05T19:58:40.735Z,63.10
2017-05-05T20:01:08.181Z,63.40
2017-05-05T20:03:35.643Z,64.20
2017-05-05T20:06:03.494Z,64.30
2017-05-05T20:08:31.184Z,64.70
2017-05-05T20:10:59.440Z,65.30
2017-05-05T20:13:27.022Z,65.60
2017-05-05T20:15:55.910Z,65.80
2017-05-05T20:18:23.591Z,66.00
2017-05-05T20:20:52.015Z,66.20
2017-05-05T20:23:19.408Z,66.40
2017-05-05T20:25:46.831Z,66.00
2017-05-05T20:28:14.362Z,66.20
2017-05-05T20:30:41.885Z,66.20
2017-05-05T20:33:09.452Z,65.80
2017-05-05T20:35:37.022Z,66.50
2017-05-05T20:38:04.437Z,66.60
2017-05-05T20:40:31.966Z,66.50
2017-05-05T20:42:59.573Z,66.40
2017-05-05T20:45:27.441Z,65.10
2017-05-05T20:47:54.966Z,65.50
2017-05-05T20:50:22.638Z,66.00
2017-05-05T20:52:50.240Z,66.20
2017-05-05T20:55:17.680Z,66.10
2017-05-05T20:57:46.096Z,65.40
2017-05-05T21:00:14.392Z,65.20
2017-05-05T21:02:42.057Z,63.80
2017-05-05T21:05:09.450Z,64.10
2017-05-05T21:07:36.844Z,64.10
2017-05-05T21:10:05.389Z,64.70
2017-05-05T21:12:32.986Z,65.20
2017-05-05T21:15:00.480Z,65.50
2017-05-05T21:17:27.983Z,65.60
2017-05-05T21:19:55.500Z,65.90
2017-05-05T21:22:23.029Z,65.70
2017-05-05T21:24:50.451Z,65.90
2017-05-05T21:27:17.862Z,65.90
2017-05-05T21:29:45.528Z,65.80
2017-05-05T21:32:13.076Z,65.80
2017-05-05T21:34:43.057Z,65.20
2017-05-05T21:37:13.071Z,64.30
2017-05-05T21:39:41.260Z,63.70
2017-05-05T21:42:09.322Z,64.10
2017-05-05T21:44:36.780Z,64.20
2017-05-05T21:47:04.350Z,64.80
2017-05-05T21:49:31.800Z,64.60
2017-05-05T21:52:00.177Z,64.90
2017-05-05T21:54:28.329Z,65.50
2017-05-05T21:56:56.015Z,65.50
2017-05-05T21:59:24.303Z,65.20
2017-05-05T22:01:51.758Z,64.30
2017-05-05T22:04:19.917Z,64.80
2017-05-05T22:06:48.080Z,63.70
2017-05-05T22:09:15.489Z,63.50
2017-05-05T22:11:43.077Z,63.10
2017-05-05T22:14:10.724Z,63.30
2017-05-05T22:16:38.129Z,63.10
2017-05-05T22:19:05.528Z,63.60
2017-05-05T22:21:33.037Z,64.10
2017-05-05T22:24:01.456Z,63.50
2017-05-05T22:26:29.212Z,63.30
2017-05-05T22:28:56.743Z,62.80
2017-05-05T22:31:24.733Z,62.90
2017-05-05T22:33:52.200Z,62.10
2017-05-05T22:36:20.426Z,61.80
2017-05-05T22:38:47.819Z,62.30
2017-05-05T22:41:15.541Z,61.50
2017-05-05T22:43:43.898Z,60.90
2017-05-05T22:46:11.295Z,61.00
2017-05-05T22:48:39.589Z,61.00
2017-05-05T22:51:06.955Z,61.60
2017-05-05T22:53:34.375Z,61.60
2017-05-05T22:56:02.481Z,62.00
2017-05-05T22:58:30.028Z,61.70
2017-05-05T23:00:57.497Z,62.90
2017-05-05T23:03:24.890Z,62.50
2017-05-05T23:05:52.303Z,62.80
2017-05-05T23:08:19.922Z,63.00
2017-05-05T23:10:49.004Z,62.50
2017-05-05T23:13:17.334Z,62.70
2017-05-05T23:15:45.017Z,62.40
2017-05-05T23:18:13.188Z,62.50
2017-05-05T23:20:40.924Z,62.60
2017-05-05T23:23:08.331Z,62.60
2017-05-05T23:25:36.719Z,63.00
2017-05-05T23:28:04.146Z,62.90
2017-05-05T23:30:31.677Z,62.80
2017-05-05T23:32:59.035Z,62.40
2017-05-05T23:35:27.818Z,62.20
2017-05-05T23:37:55.719Z,62.10
2017-05-05T23:40:23.068Z,63.20
2017-05-05T23:42:50.730Z,62.60
2017-05-05T23:45:18.168Z,62.50
2017-05-05T23:47:45.601Z,63.10
2017-05-05T23:50:12.966Z,63.40
2017-05-05T23:52:40.466Z,63.20
2017-05-05T23:55:07.817Z,63.30
2017-05-05T23:57:36.009Z,63.20
